createdAt,value
2022-11-04T00:01:51.889Z,99938.69
2022-11-04T00:04:21.493Z,99943.44
2022-11-04T00:06:49.914Z,99941.81
2022-11-04T00:09:24.138Z,99792.75
2022-11-04T00:12:09.924Z,99944.31
2022-11-04T00:14:38.336Z,99694.91
2022-11-04T00:17:22.894Z,99962.28
2022-11-04T00:20:09.604Z,99943.53
2022-11-04T00:22:58.045Z,99820.19
2022-11-04T00:25:44.184Z,99983.81
2022-11-04T00:28:32.748Z,99952.94
2022-11-04T00:31:24.048Z,99968.53
2022-11-04T00:33:54.453Z,99956.66
2022-11-04T00:36:24.226Z,99946.31
2022-11-04T00:38:52.759Z,100004.38
2022-11-04T00:41:30.548Z,99982.72
2022-11-04T00:44:00.126Z,99983.34
2022-11-04T00:46:31.424Z,99952.19
2022-11-04T00:49:01.365Z,99963.59
2022-11-04T00:51:29.693Z,99947.34
2022-11-04T00:53:58.604Z,99896.94
2022-11-04T00:56:26.955Z,100005.47
2022-11-04T00:58:55.090Z,99961.78
2022-11-04T01:01:23.395Z,99993.50
2022-11-04T01:03:54.940Z,100012.25
2022-11-04T01:06:25.522Z,100018.56
2022-11-04T01:08:56.921Z,100026.66
2022-11-04T01:11:25.435Z,100015.41
2022-11-04T01:13:53.735Z,99939.28
2022-11-04T01:16:22.471Z,100006.72
2022-11-04T01:18:50.870Z,99922.53
2022-11-04T01:21:19.160Z,99991.06
2022-11-04T01:23:48.779Z,99856.22
2022-11-04T01:26:18.762Z,100000.03
2022-11-04T01:28:47.457Z,100027.34
2022-11-04T01:31:16.968Z,100004.75
2022-11-04T01:33:45.544Z,100045.84
2022-11-04T01:36:14.394Z,100034.38
2022-11-04T01:38:42.735Z,100058.72
2022-11-04T01:41:21.389Z,100059.09
2022-11-04T01:43:52.331Z,100062.16
2022-11-04T01:46:28.384Z,100040.41
2022-11-04T01:49:00.461Z,100060.66
2022-11-04T01:51:29.966Z,100049.81
2022-11-04T01:53:58.148Z,100059.78
2022-11-04T01:56:28.272Z,100065.41
2022-11-04T01:58:59.231Z,100065.09
2022-11-04T02:01:27.485Z,99969.19
2022-11-04T02:04:18.580Z,100072.75
2022-11-04T02:06:48.043Z,99925.47
2022-11-04T02:09:17.250Z,100056.94
2022-11-04T02:12:04.237Z,100101.28
2022-11-04T02:14:33.018Z,100048.41
2022-11-04T02:17:08.044Z,100049.31
2022-11-04T02:19:56.403Z,100063.03
2022-11-04T02:22:38.093Z,100035.84
2022-11-04T02:25:26.934Z,100064.78
2022-11-04T02:28:15.126Z,100044.75
2022-11-04T02:30:47.930Z,100084.16
2022-11-04T02:33:20.597Z,100045.06
2022-11-04T02:35:55.641Z,100078.84
2022-11-04T02:38:32.891Z,100080.66
2022-11-04T02:41:07.243Z,100075.66
2022-11-04T02:43:43.323Z,100075.47
2022-11-04T02:46:19.080Z,100072.88
2022-11-04T02:48:49.028Z,100085.09
2022-11-04T02:51:20.687Z,100072.22
2022-11-04T02:53:53.833Z,100074.81
2022-11-04T02:56:23.391Z,100071.34
2022-11-04T02:58:56.044Z,100070.50
2022-11-04T03:01:28.784Z,100075.00
2022-11-04T03:04:01.921Z,100067.75
2022-11-04T03:06:30.830Z,100072.41
2022-11-04T03:08:59.052Z,100049.72
2022-11-04T03:11:28.439Z,100075.88
2022-11-04T03:14:00.030Z,100076.00
2022-11-04T03:16:32.913Z,100077.97
2022-11-04T03:19:05.195Z,100085.06
2022-11-04T03:21:36.434Z,100086.00
2022-11-04T03:24:05.736Z,100089.72
2022-11-04T03:26:39.169Z,100087.94
2022-11-04T03:29:17.224Z,100078.31
2022-11-04T03:31:50.300Z,100092.38
2022-11-04T03:34:18.357Z,100089.72
2022-11-04T03:36:46.670Z,100082.75
2022-11-04T03:39:14.765Z,100091.53
2022-11-04T03:41:45.665Z,100104.00
2022-11-04T03:44:13.727Z,100090.94
2022-11-04T03:46:42.058Z,100092.31
2022-11-04T03:49:13.316Z,100115.28
2022-11-04T03:51:41.387Z,100119.75
2022-11-04T03:54:09.710Z,100119.84
2022-11-04T03:56:57.570Z,100112.78
2022-11-04T03:59:37.788Z,100126.84
2022-11-04T04:02:11.689Z,100122.31
2022-11-04T04:04:45.569Z,100122.31
2022-11-04T04:07:16.340Z,100129.25
2022-11-04T04:09:46.595Z,100129.38
2022-11-04T04:12:18.376Z,100123.16
2022-11-04T04:14:49.803Z,100139.81
2022-11-04T04:17:20.850Z,100145.22
2022-11-04T04:19:53.897Z,100146.13
2022-11-04T04:22:24.375Z,100148.63
2022-11-04T04:25:12.076Z,100148.66
2022-11-04T04:27:40.888Z,100134.75
2022-11-04T04:30:11.234Z,100148.66
2022-11-04T04:32:42.467Z,100158.31
2022-11-04T04:35:30.009Z,100161.69
2022-11-04T04:38:21.816Z,100169.59
2022-11-04T04:41:10.942Z,100175.72
2022-11-04T04:43:57.974Z,100170.41
2022-11-04T04:46:26.300Z,100175.22
2022-11-04T04:48:54.296Z,100182.47
2022-11-04T04:51:23.923Z,100191.38
2022-11-04T04:53:51.978Z,100193.06
2022-11-04T04:56:19.968Z,100183.38
2022-11-04T04:58:48.079Z,100189.34
2022-11-04T05:01:16.268Z,100198.00
2022-11-04T05:03:45.407Z,100195.19
2022-11-04T05:06:13.575Z,100202.31
2022-11-04T05:08:42.921Z,100204.28
2022-11-04T05:11:10.987Z,100199.22
2022-11-04T05:13:39.071Z,100209.88
2022-11-04T05:16:08.658Z,100206.09
2022-11-04T05:18:37.142Z,100208.84
2022-11-04T05:21:06.005Z,100217.66
2022-11-04T05:23:34.126Z,100232.75
2022-11-04T05:26:03.575Z,100235.38
2022-11-04T05:28:31.796Z,100238.84
2022-11-04T05:31:04.075Z,100236.41
2022-11-04T05:33:32.212Z,100240.03
2022-11-04T05:36:07.020Z,100247.78
2022-11-04T05:38:35.125Z,100247.59
2022-11-04T05:41:04.650Z,100251.03
2022-11-04T05:43:32.921Z,100248.38
2022-11-04T05:46:01.263Z,100245.72
2022-11-04T05:48:29.707Z,100230.09
2022-11-04T05:50:57.773Z,100255.44
2022-11-04T05:55:58.787Z,100252.13
2022-11-04T05:58:28.207Z,100255.66
2022-11-04T06:00:56.257Z,100251.25
2022-11-04T06:03:24.329Z,100267.03
2022-11-04T06:05:52.320Z,100266.06
2022-11-04T06:08:20.366Z,100281.94
2022-11-04T06:10:48.463Z,100279.38
2022-11-04T06:13:16.478Z,100275.00
2022-11-04T06:15:45.895Z,100272.84
2022-11-04T06:18:14.044Z,100277.63
2022-11-04T06:20:42.057Z,100274.53
2022-11-04T06:23:10.116Z,100280.72
2022-11-04T06:25:38.141Z,100276.56
2022-11-04T06:28:06.423Z,100278.34
2022-11-04T06:30:34.709Z,100275.94
2022-11-04T06:33:04.126Z,100278.88
2022-11-04T06:35:32.191Z,100274.00
2022-11-04T06:38:00.334Z,100274.56
2022-11-04T06:40:28.386Z,100273.19
2022-11-04T06:42:56.445Z,100263.50
2022-11-04T06:45:24.482Z,100274.44
2022-11-04T06:47:52.560Z,100271.81
2022-11-04T06:50:22.156Z,100259.59
2022-11-04T06:52:50.248Z,100272.63
2022-11-04T06:55:18.280Z,100278.91
2022-11-04T06:57:46.341Z,100277.94
2022-11-04T07:00:15.345Z,100277.19
2022-11-04T07:02:43.531Z,100286.09
2022-11-04T07:05:12.204Z,100279.91
2022-11-04T07:07:41.657Z,100281.78
2022-11-04T07:10:10.403Z,100266.91
2022-11-04T07:12:38.514Z,100304.47
2022-11-04T07:15:07.673Z,100310.34
2022-11-04T07:17:35.779Z,100312.63
2022-11-04T07:20:05.531Z,100311.47
2022-11-04T07:22:33.605Z,100313.75
2022-11-04T07:25:03.068Z,100321.28
2022-11-04T07:27:31.147Z,100322.50
2022-11-04T07:30:00.835Z,100334.03
2022-11-04T07:32:29.274Z,100343.88
2022-11-04T07:34:57.298Z,100347.88
2022-11-04T07:37:25.420Z,100351.44
2022-11-04T07:39:53.479Z,100349.69
2022-11-04T07:42:22.936Z,100360.06
2022-11-04T07:44:55.793Z,100369.59
2022-11-04T07:47:23.848Z,100364.44
2022-11-04T07:49:52.033Z,100366.72
2022-11-04T07:52:20.303Z,100375.38
2022-11-04T07:54:48.357Z,100374.34
2022-11-04T07:57:16.441Z,100381.44
2022-11-04T07:59:45.873Z,100384.88
2022-11-04T08:02:14.037Z,100389.00
2022-11-04T08:04:42.204Z,100392.91
2022-11-04T08:07:10.388Z,100396.97
2022-11-04T08:09:38.502Z,100387.88
2022-11-04T08:12:07.248Z,100390.31
2022-11-04T08:14:35.379Z,100407.16
2022-11-04T08:17:04.948Z,100409.81
2022-11-04T08:19:33.043Z,100409.22
2022-11-04T08:22:01.220Z,100413.97
2022-11-04T08:24:29.248Z,100416.97
2022-11-04T08:26:58.073Z,100418.78
2022-11-04T08:29:26.426Z,100420.69
2022-11-04T08:31:54.486Z,100427.84
2022-11-04T08:34:23.915Z,100435.34
2022-11-04T08:36:53.318Z,100446.53
2022-11-04T08:39:21.480Z,100451.66
2022-11-04T08:41:52.209Z,100452.88
2022-11-04T08:44:22.307Z,100454.16
2022-11-04T08:46:50.557Z,100458.19
2022-11-04T08:49:21.358Z,100463.81
2022-11-04T08:51:59.558Z,100460.25
2022-11-04T08:54:28.623Z,100457.44
2022-11-04T08:56:56.637Z,100454.91
2022-11-04T08:59:25.542Z,100466.97
2022-11-04T09:01:53.730Z,100478.66
2022-11-04T09:04:21.984Z,100475.69
2022-11-04T09:06:52.391Z,100465.56
2022-11-04T09:09:20.890Z,100469.03
2022-11-04T09:11:49.284Z,100470.16
2022-11-04T09:14:18.644Z,100473.03
2022-11-04T09:16:46.731Z,100466.44
2022-11-04T09:19:14.820Z,100478.59
2022-11-04T09:21:43.104Z,100470.06
2022-11-04T09:24:12.654Z,100483.75
2022-11-04T09:26:40.728Z,100490.25
2022-11-04T09:29:09.869Z,100498.97
2022-11-04T09:31:38.450Z,100482.72
2022-11-04T09:34:06.593Z,100498.94
2022-11-04T09:36:34.766Z,100499.59
2022-11-04T09:39:02.858Z,100495.47
2022-11-04T09:41:48.346Z,100507.53
2022-11-04T09:44:23.649Z,100512.41
2022-11-04T09:46:54.170Z,100511.72
2022-11-04T09:49:22.832Z,100514.56
2022-11-04T09:51:54.830Z,100514.75
2022-11-04T09:54:25.587Z,100526.41
2022-11-04T09:56:56.811Z,100533.41
2022-11-04T09:59:28.355Z,100535.19
2022-11-04T10:02:22.796Z,100539.66
2022-11-04T10:05:00.387Z,100543.97
2022-11-04T10:07:39.023Z,100549.50
2022-11-04T10:10:13.833Z,100552.19
2022-11-04T10:13:01.965Z,100557.00
2022-11-04T10:15:42.720Z,100566.28
2022-11-04T10:18:23.989Z,100568.38
2022-11-04T10:20:58.624Z,100571.19
2022-11-04T10:23:33.804Z,100583.03
2022-11-04T10:26:08.600Z,100585.38
2022-11-04T10:28:43.519Z,100582.78
2022-11-04T10:31:14.399Z,100579.75
2022-11-04T10:33:45.025Z,100576.72
2022-11-04T10:36:13.948Z,100580.09
2022-11-04T10:38:44.857Z,100592.75
2022-11-04T10:41:23.369Z,100591.47
2022-11-04T10:43:56.635Z,100595.38
2022-11-04T10:46:44.430Z,100508.03
2022-11-04T10:49:30.892Z,100601.09
2022-11-04T10:51:59.022Z,100601.00
2022-11-04T10:54:28.352Z,100584.69
2022-11-04T10:56:57.608Z,100607.31
2022-11-04T10:59:29.015Z,100603.13
2022-11-04T11:01:58.514Z,100614.34
2022-11-04T11:04:32.340Z,100616.84
2022-11-04T11:07:01.588Z,100622.44
2022-11-04T11:09:30.696Z,100623.06
2022-11-04T11:12:00.971Z,100627.09
2022-11-04T11:14:38.839Z,100633.09
2022-11-04T11:17:22.170Z,100639.97
2022-11-04T11:19:55.509Z,100640.13
2022-11-04T11:22:32.790Z,100643.56
2022-11-04T11:25:23.421Z,100647.53
2022-11-04T11:27:53.259Z,100649.44
2022-11-04T11:30:29.257Z,100655.03
2022-11-04T11:32:59.553Z,100657.69
2022-11-04T11:35:32.126Z,100663.03
2022-11-04T11:38:01.293Z,100635.09
2022-11-04T11:40:31.873Z,100662.88
2022-11-04T11:43:01.344Z,100665.16
2022-11-04T11:45:31.140Z,100663.63
2022-11-04T11:47:59.301Z,100679.59
2022-11-04T11:50:32.889Z,100678.78
2022-11-04T11:53:17.939Z,100656.59
2022-11-04T11:55:49.860Z,100673.28
2022-11-04T12:01:24.128Z,100702.50
2022-11-04T12:09:39.645Z,100714.53
2022-11-04T12:12:37.131Z,100720.56
2022-11-04T12:15:18.784Z,100727.00
2022-11-04T12:17:59.871Z,100730.50
2022-11-04T12:20:45.959Z,100724.41
2022-11-04T12:23:19.772Z,100724.66
2022-11-04T12:26:00.769Z,100721.16
2022-11-04T12:28:36.524Z,100718.97
2022-11-04T12:31:13.574Z,100721.06
2022-11-04T12:33:48.403Z,100729.84
2022-11-04T12:36:29.219Z,100729.81
2022-11-04T12:39:07.194Z,100728.94
2022-11-04T12:42:14.437Z,100742.97
2022-11-04T12:44:34.558Z,100748.44
2022-11-04T12:47:11.570Z,100758.28
2022-11-04T12:50:05.451Z,100770.13
2022-11-04T12:52:43.533Z,100786.91
2022-11-04T12:55:44.085Z,100792.69
2022-11-04T12:58:31.690Z,100798.16
2022-11-04T13:01:03.708Z,100811.06
2022-11-04T13:03:35.488Z,100804.22
2022-11-04T13:06:09.544Z,100807.91
2022-11-04T13:08:41.079Z,100809.16
2022-11-04T13:11:22.809Z,100810.44
2022-11-04T13:14:01.786Z,100809.00
2022-11-04T13:16:31.845Z,100801.16
2022-11-04T13:19:00.343Z,100809.44
2022-11-04T13:21:34.305Z,100813.09
2022-11-04T13:24:04.896Z,100811.50
2022-11-04T13:26:33.396Z,100820.50
2022-11-04T13:29:08.926Z,100814.38
2022-11-04T13:31:46.555Z,100816.88
2022-11-04T13:34:23.640Z,100822.16
2022-11-04T13:36:59.650Z,100828.59
2022-11-04T13:39:30.350Z,100832.22
2022-11-04T13:42:40.339Z,100834.59
2022-11-04T13:45:12.479Z,100833.88
2022-11-04T13:47:47.014Z,100840.91
2022-11-04T13:50:30.309Z,100841.13
2022-11-04T13:52:59.724Z,100839.56
2022-11-04T13:55:27.858Z,100836.91
2022-11-04T13:57:58.292Z,100836.31
2022-11-04T14:00:28.081Z,100810.03
2022-11-04T14:02:57.997Z,100840.50
2022-11-04T14:06:06.054Z,100842.59
2022-11-04T14:08:36.015Z,100834.53
2022-11-04T14:11:13.799Z,100858.91
2022-11-04T14:14:04.697Z,100856.94
2022-11-04T14:16:43.830Z,100845.59
2022-11-04T14:19:57.533Z,100866.59
2022-11-04T14:22:49.048Z,100865.72
2022-11-04T14:25:25.241Z,100866.53
2022-11-04T14:27:54.794Z,100868.25
2022-11-04T14:30:31.729Z,100852.50
2022-11-04T14:33:01.233Z,100871.66
2022-11-04T14:35:30.568Z,100874.22
2022-11-04T14:38:01.241Z,100880.47
2022-11-04T14:40:47.216Z,100897.56
2022-11-04T14:43:24.292Z,100903.16
2022-11-04T14:45:52.526Z,100912.22
2022-11-04T14:48:21.462Z,100865.63
2022-11-04T14:50:54.085Z,100916.56
2022-11-04T14:53:25.706Z,100919.19
2022-11-04T14:56:06.427Z,100908.56
2022-11-04T14:58:34.596Z,100908.34
2022-11-04T15:01:03.805Z,100917.13
2022-11-04T15:04:09.998Z,100891.06
2022-11-04T15:06:35.222Z,100921.13
2022-11-04T15:09:20.675Z,100921.34
2022-11-04T15:12:07.730Z,100925.16
2022-11-04T15:14:38.020Z,100923.50
2022-11-04T15:17:06.127Z,100927.53
2022-11-04T15:19:36.090Z,100942.38
2022-11-04T15:23:46.950Z,100932.56
2022-11-04T15:26:29.420Z,100937.88
2022-11-04T15:29:01.037Z,100939.63
2022-11-04T15:31:31.389Z,100943.97
2022-11-04T15:34:03.464Z,100939.38
2022-11-04T15:36:36.487Z,100945.56
2022-11-04T15:39:13.453Z,100951.75
2022-11-04T15:42:02.430Z,100959.59
2022-11-04T15:44:33.896Z,100942.00
2022-11-04T15:47:07.008Z,100961.28
2022-11-04T15:49:37.338Z,100962.25
2022-11-04T15:52:09.759Z,100961.53
2022-11-04T15:54:42.023Z,100971.94
2022-11-04T15:57:16.401Z,100870.19
2022-11-04T15:59:52.798Z,100972.78
2022-11-04T16:02:28.042Z,100972.25
2022-11-04T16:05:23.169Z,100978.53
2022-11-04T16:07:53.685Z,100982.22
2022-11-04T16:10:31.219Z,100975.28
2022-11-04T16:13:01.799Z,100963.00
2022-11-04T16:15:39.373Z,100985.22
2022-11-04T16:18:23.003Z,100990.03
2022-11-04T16:20:53.115Z,100994.81
2022-11-04T16:23:25.335Z,100996.75
2022-11-04T16:25:59.817Z,100995.69
2022-11-04T16:28:30.552Z,101016.03
2022-11-04T16:30:59.475Z,101008.00
2022-11-04T16:33:33.004Z,101009.69
2022-11-04T16:36:01.788Z,101005.25
2022-11-04T16:38:30.002Z,101001.72
2022-11-04T16:40:59.644Z,101009.56
2022-11-04T16:43:28.011Z,101023.88
2022-11-04T16:45:56.230Z,101033.56
2022-11-04T16:48:25.081Z,101033.63
2022-11-04T16:50:53.347Z,101032.88
2022-11-04T16:53:21.610Z,101041.72
2022-11-04T16:55:50.067Z,101039.06
2022-11-04T16:58:20.186Z,101038.13
2022-11-04T17:00:48.613Z,101035.69
2022-11-04T17:03:21.712Z,101037.53
2022-11-04T17:05:50.743Z,101040.25
2022-11-04T17:08:19.101Z,101035.03
2022-11-04T17:10:47.687Z,101038.50
2022-11-04T17:13:15.955Z,101042.16
2022-11-04T17:15:45.794Z,101063.81
2022-11-04T17:18:16.705Z,101042.31
2022-11-04T17:20:49.225Z,101044.22
2022-11-04T17:23:17.885Z,101055.59
2022-11-04T17:25:46.963Z,101055.41
2022-11-04T17:28:15.524Z,101063.34
2022-11-04T17:30:45.844Z,101070.53
2022-11-04T17:33:15.628Z,101079.38
2022-11-04T17:35:46.381Z,101075.97
2022-11-04T17:38:14.653Z,101074.97
2022-11-04T17:40:57.385Z,101083.69
2022-11-04T17:43:58.390Z,101079.38
2022-11-04T17:46:38.746Z,101079.50
2022-11-04T17:49:12.764Z,101096.44
2022-11-04T17:51:42.660Z,101096.56
2022-11-04T17:54:11.193Z,101093.13
2022-11-04T17:56:41.493Z,101106.31
2022-11-04T17:59:11.563Z,101109.72
2022-11-04T18:01:42.574Z,101120.25
2022-11-04T18:04:15.240Z,101116.72
2022-11-04T18:06:44.710Z,101121.16
2022-11-04T18:09:15.014Z,101121.81
2022-11-04T18:12:02.346Z,101116.63
2022-11-04T18:14:30.703Z,101112.41
2022-11-04T18:17:00.464Z,101110.75
2022-11-04T18:19:29.538Z,101118.81
2022-11-04T18:21:57.770Z,101130.50
2022-11-04T18:24:26.104Z,101120.09
2022-11-04T18:26:54.815Z,101127.25
2022-11-04T18:29:23.175Z,101134.59
2022-11-04T18:31:51.496Z,101138.19
2022-11-04T18:34:21.286Z,101135.69
2022-11-04T18:36:50.064Z,101145.44
2022-11-04T18:39:19.952Z,101147.28
2022-11-04T18:41:48.822Z,101144.66
2022-11-04T18:44:19.360Z,101159.88
2022-11-04T18:46:48.108Z,101150.22
2022-11-04T18:49:17.640Z,101165.25
2022-11-04T18:51:47.565Z,101173.03
2022-11-04T18:54:16.254Z,101174.75
2022-11-04T18:56:44.905Z,101172.91
2022-11-04T18:59:15.367Z,101176.50
2022-11-04T19:01:45.551Z,101173.91
2022-11-04T19:04:14.678Z,101181.00
2022-11-04T19:06:45.904Z,101182.19
2022-11-04T19:09:46.024Z,101177.88
2022-11-04T19:12:24.003Z,101193.06
2022-11-04T19:14:53.158Z,101199.81
2022-11-04T19:17:22.329Z,101189.91
2022-11-04T19:19:51.373Z,101202.13
2022-11-04T19:22:21.124Z,101192.25
2022-11-04T19:24:49.405Z,101188.66
2022-11-04T19:27:19.558Z,101189.53
2022-11-04T19:29:47.898Z,101195.66
2022-11-04T19:32:16.112Z,101203.59
2022-11-04T19:34:44.682Z,101199.16
2022-11-04T19:37:13.373Z,101207.09
2022-11-04T19:39:43.152Z,101200.84
2022-11-04T19:42:29.579Z,101215.91
2022-11-04T19:44:57.900Z,101214.19
2022-11-04T19:47:26.124Z,101208.13
2022-11-04T19:49:55.406Z,101212.44
2022-11-04T19:52:23.740Z,101215.09
2022-11-04T19:54:53.343Z,101214.16
2022-11-04T19:57:21.689Z,101223.84
2022-11-04T19:59:51.804Z,101222.03
2022-11-04T20:02:20.519Z,101220.28
2022-11-04T20:04:50.056Z,101233.41
2022-11-04T20:07:18.861Z,101235.22
2022-11-04T20:09:47.098Z,101237.75
2022-11-04T20:12:34.459Z,101239.47
2022-11-04T20:15:02.766Z,101238.63
2022-11-04T20:17:33.217Z,101242.13
2022-11-04T20:20:01.620Z,101245.63
2022-11-04T20:22:29.892Z,101258.91
2022-11-04T20:24:58.169Z,101263.34
2022-11-04T20:27:27.890Z,101273.97
2022-11-04T20:29:56.172Z,101261.63
2022-11-04T20:32:24.702Z,101274.06
2022-11-04T20:34:53.451Z,101266.13
2022-11-04T20:37:21.630Z,101277.59
2022-11-04T20:39:49.996Z,101275.81
2022-11-04T20:42:18.223Z,101280.22
2022-11-04T20:44:47.912Z,101277.59
2022-11-04T20:47:17.392Z,101274.94
2022-11-04T20:49:45.797Z,101280.25
2022-11-04T20:52:14.003Z,101279.34
2022-11-04T20:54:42.282Z,101284.69
2022-11-04T20:57:10.662Z,101285.59
2022-11-04T20:59:38.892Z,101290.16
2022-11-04T21:02:08.764Z,101287.59
2022-11-04T21:04:37.275Z,101300.03
2022-11-04T21:07:06.825Z,101301.03
2022-11-04T21:09:35.093Z,101302.13
2022-11-04T21:12:03.494Z,101305.78
2022-11-04T21:14:34.725Z,101308.53
2022-11-04T21:17:03.415Z,101308.63
2022-11-04T21:19:33.550Z,101310.41
2022-11-04T21:22:01.851Z,101320.13
2022-11-04T21:24:32.759Z,101320.13
2022-11-04T21:27:04.729Z,101320.13
2022-11-04T21:29:32.970Z,101309.50
2022-11-04T21:32:01.166Z,101313.06
2022-11-04T21:34:29.484Z,101321.03
2022-11-04T21:36:59.060Z,101321.81
2022-11-04T21:39:27.370Z,101329.78
2022-11-04T21:41:55.639Z,101324.44
2022-11-04T21:44:23.895Z,101331.53
2022-11-04T21:46:52.643Z,101331.53
2022-11-04T21:49:21.081Z,101331.50
2022-11-04T21:51:49.445Z,101337.75
2022-11-04T21:54:19.348Z,101328.91
2022-11-04T21:56:47.636Z,101343.00
2022-11-04T21:59:18.515Z,101325.25
2022-11-04T22:01:47.145Z,101338.53
2022-11-04T22:04:15.499Z,101335.81
2022-11-04T22:06:43.771Z,101340.19
2022-11-04T22:09:13.261Z,101336.75
2022-11-04T22:11:42.866Z,101342.13
2022-11-04T22:14:13.648Z,101338.66
2022-11-04T22:16:41.756Z,101342.19
2022-11-04T22:19:13.464Z,101343.97
2022-11-04T22:21:44.349Z,101337.84
2022-11-04T22:24:13.027Z,101349.28
2022-11-04T22:26:44.153Z,101346.66
2022-11-04T22:29:12.515Z,101357.28
2022-11-04T22:31:44.341Z,101358.19
2022-11-04T22:34:12.620Z,101352.84
2022-11-04T22:36:41.063Z,101351.09
2022-11-04T22:39:16.125Z,101352.78
2022-11-04T22:41:47.201Z,101358.16
2022-11-04T22:44:15.969Z,101357.25
2022-11-04T22:46:44.367Z,101344.81
2022-11-04T22:49:13.031Z,101349.22
2022-11-04T22:51:41.346Z,101344.72
2022-11-04T22:54:11.415Z,101347.31
2022-11-04T22:56:39.829Z,101345.53
2022-11-04T22:59:09.397Z,101343.84
2022-11-04T23:01:38.329Z,101336.13
2022-11-04T23:04:11.589Z,101344.19
2022-11-04T23:06:40.038Z,101315.97
2022-11-04T23:09:08.413Z,101351.31
2022-11-04T23:11:54.321Z,101353.97
2022-11-04T23:14:41.880Z,101352.16
2022-11-04T23:17:34.412Z,101348.59
2022-11-04T23:20:03.134Z,101339.78
2022-11-04T23:22:49.031Z,101345.97
2022-11-04T23:25:17.366Z,101351.25
2022-11-04T23:28:06.344Z,101347.75
2022-11-04T23:30:38.411Z,101342.47
2022-11-04T23:33:08.997Z,101339.88
2022-11-04T23:35:56.172Z,101350.47
2022-11-04T23:38:25.144Z,101345.16
2022-11-04T23:41:14.385Z,101355.75
2022-11-04T23:43:42.766Z,101364.56
2022-11-04T23:46:30.901Z,101354.84
2022-11-04T23:49:16.671Z,101353.97
2022-11-04T23:52:02.392Z,101352.22
2022-11-04T23:54:48.393Z,101368.13
2022-11-04T23:57:36.124Z,101361.94
